Time;durP1;ratioP1;P1;durP2;ratioP2;P2;SDS_P1;SDS_P2;PMS_P1;PMS_P2;Temp;Humidity;BMP_temperature;BMP_pressure;BME280_temperature;BME280_humidity;BME280_pressure;Samples;Min_cycle;Max_cycle;Signal;HPM_P1;HPM_P2
2021/04/21 00:00:39;;;;;;;13.23;5.60;;;;;;;6.75;73.85;100659.47;4994827;28;20133;-74
2021/04/21 00:03:06;;;;;;;14.63;4.97;;;;;;;6.64;74.25;100661.72;4985567;28;20042;-72
2021/04/21 00:05:33;;;;;;;10.95;5.30;;;;;;;6.60;75.17;100664.44;4987435;28;20141;-74
2021/04/21 00:08:00;;;;;;;15.75;5.18;;;;;;;6.56;75.20;100660.25;4995445;28;20137;-74
2021/04/21 00:10:28;;;;;;;10.52;5.15;;;;;;;6.52;75.93;100658.69;5003439;28;20054;-73
2021/04/21 00:12:55;;;;;;;13.48;5.55;;;;;;;6.52;75.94;100653.44;5002823;28;20393;-72
2021/04/21 00:15:23;;;;;;;10.20;5.22;;;;;;;6.57;76.21;100651.53;4997095;28;20137;-73
2021/04/21 00:17:55;;;;;;;9.65;5.43;;;;;;;6.56;76.53;100654.19;4994150;28;20157;-73
2021/04/21 00:20:23;;;;;;;12.55;5.80;;;;;;;6.48;77.13;100649.25;5004621;28;20089;-75
2021/04/21 00:22:53;;;;;;;15.52;5.15;;;;;;;6.42;77.47;100649.53;5003290;28;20046;-73
2021/04/21 00:25:22;;;;;;;12.63;6.03;;;;;;;6.42;77.96;100652.13;4975760;28;20138;-75
2021/04/21 00:27:51;;;;;;;15.90;5.43;;;;;;;6.42;78.28;100654.75;4992850;28;20146;-73
2021/04/21 00:30:21;;;;;;;11.18;6.10;;;;;;;6.41;78.30;100653.06;4996770;28;20082;-74
2021/04/21 00:32:51;;;;;;;12.30;5.50;;;;;;;6.44;79.03;100652.94;4996608;28;20149;-73
2021/04/21 00:35:22;;;;;;;13.48;5.50;;;;;;;6.37;79.25;100654.09;4993703;28;20153;-73
2021/04/21 00:37:49;;;;;;;16.20;5.15;;;;;;;6.36;79.80;100655.00;5000086;28;20053;-74
2021/04/21 00:40:18;;;;;;;14.40;5.70;;;;;;;6.46;79.54;100653.72;4997158;28;20493;-74
2021/04/21 00:42:52;;;;;;;17.88;7.00;;;;;;;6.50;79.17;100657.06;5002178;28;20141;-74
2021/04/21 00:45:20;;;;;;;16.23;6.20;;;;;;;6.33;79.68;100658.59;4982395;28;20130;-72
2021/04/21 00:47:56;;;;;;;18.40;6.10;;;;;;;6.22;80.41;100657.34;4991808;28;20417;-72
2021/04/21 00:50:28;;;;;;;;;;;;;;;6.15;80.77;100655.88;4993292;28;20105;-73
2021/04/21 00:53:08;;;;;;;16.67;6.25;;;;;;;6.14;80.96;100655.03;4981897;28;20350;-71
2021/04/21 00:56:06;;;;;;;14.10;5.30;;;;;;;6.16;80.62;100647.97;4993833;28;20051;-72
2021/04/21 00:58:55;;;;;;;12.57;5.70;;;;;;;6.09;80.97;100647.38;4993622;28;20172;-73
2021/04/21 01:01:22;;;;;;;14.43;5.10;;;;;;;6.24;80.79;100647.66;4993328;28;20050;-72
2021/04/21 01:03:53;;;;;;;14.05;5.38;;;;;;;6.25;80.40;100646.75;4999145;28;20461;-75
2021/04/21 01:06:26;;;;;;;13.75;5.53;;;;;;;6.33;80.05;100642.06;4997080;28;20156;-74
2021/04/21 01:08:57;;;;;;;12.18;5.78;;;;;;;6.32;79.49;100645.59;4987871;28;20133;-73
2021/04/21 01:11:29;;;;;;;13.07;6.38;;;;;;;6.45;79.84;100643.31;4993111;28;20814;-72
2021/04/21 01:14:03;;;;;;;12.98;5.32;;;;;;;6.46;79.04;100638.03;4971186;28;20467;-72
2021/04/21 01:16:31;;;;;;;11.38;5.32;;;;;;;6.40;79.10;100645.28;4996109;28;20069;-74
2021/04/21 01:19:02;;;;;;;14.32;5.03;;;;;;;6.46;79.06;100635.41;4982079;28;20050;-72
2021/04/21 01:21:43;;;;;;;15.05;5.50;;;;;;;6.66;77.52;100638.94;5005161;28;20056;-73
2021/04/21 01:24:20;;;;;;;12.02;4.72;;;;;;;6.46;77.79;100645.03;4992241;28;20057;-73
2021/04/21 01:26:50;;;;;;;10.65;4.95;;;;;;;6.32;78.21;100645.59;4988612;28;20470;-73
2021/04/21 01:29:32;;;;;;;12.38;5.63;;;;;;;6.41;77.64;100639.97;4991039;28;20496;-74
2021/04/21 01:32:04;;;;;;;15.05;5.53;;;;;;;6.44;77.85;100639.88;4997439;28;20432;-74
2021/04/21 01:34:33;;;;;;;12.68;5.05;;;;;;;6.28;78.05;100644.00;4997308;28;20728;-74
2021/04/21 01:37:04;;;;;;;17.80;5.20;;;;;;;6.49;77.70;100645.75;4985803;28;20142;-74
2021/04/21 01:39:36;;;;;;;11.88;5.18;;;;;;;6.50;78.05;100647.44;5000589;28;20058;-72
2021/04/21 01:42:03;;;;;;;15.40;5.45;;;;;;;6.65;76.46;100640.72;5005089;28;20038;-73
2021/04/21 01:44:42;;;;;;;16.20;5.40;;;;;;;6.41;77.20;100650.44;4997975;28;20125;-72
2021/04/21 01:47:16;;;;;;;15.77;5.80;;;;;;;6.23;78.19;100654.66;5003228;28;20146;-73
2021/04/21 01:50:07;;;;;;;11.88;5.40;;;;;;;6.15;78.68;100655.88;4966554;28;20104;-72
2021/04/21 01:52:37;;;;;;;13.52;5.30;;;;;;;6.15;78.22;100658.50;4966042;28;20503;-74
2021/04/21 01:55:23;;;;;;;10.73;5.63;;;;;;;6.27;78.34;100651.00;4996129;28;20109;-74
2021/04/21 01:57:58;;;;;;;12.85;5.22;;;;;;;6.45;76.58;100646.78;4983074;28;20419;-72
2021/04/21 02:00:38;;;;;;;14.18;4.60;;;;;;;6.52;75.63;100645.59;4992421;28;20421;-72
2021/04/21 02:03:18;;;;;;;10.10;5.53;;;;;;;6.64;75.44;100646.03;4990249;28;20085;-73
2021/04/21 02:06:08;;;;;;;11.52;4.88;;;;;;;6.65;74.86;100635.47;4994675;28;20052;-73
2021/04/21 02:09:03;;;;;;;11.15;4.60;;;;;;;6.66;74.91;100641.56;4978389;28;20125;-74
2021/04/21 02:11:33;;;;;;;11.45;5.28;;;;;;;6.58;74.84;100645.38;4995212;28;20041;-73
2021/04/21 02:14:15;;;;;;;14.30;6.65;;;;;;;6.54;75.01;100645.56;4994520;28;20204;-74
2021/04/21 02:16:47;;;;;;;12.95;6.60;;;;;;;6.44;75.17;100639.88;5018421;28;20056;-74
2021/04/21 02:19:33;;;;;;;13.40;6.45;;;;;;;6.32;75.86;100640.38;5012089;28;20122;-70
2021/04/21 02:22:22;;;;;;;14.18;5.95;;;;;;;6.29;75.98;100636.09;5001497;28;20145;-72
2021/04/21 02:25:07;;;;;;;12.38;5.97;;;;;;;6.25;76.12;100641.50;4988034;28;20060;-71
2021/04/21 02:27:45;;;;;;;16.15;5.90;;;;;;;6.16;77.12;100634.91;4996486;28;20054;-72
2021/04/21 02:30:23;;;;;;;18.77;6.47;;;;;;;6.15;77.36;100634.97;4989986;28;20050;-72
2021/04/21 02:33:03;;;;;;;19.98;6.53;;;;;;;6.16;77.25;100641.88;4967174;28;20046;-72
2021/04/21 02:35:50;;;;;;;15.82;6.00;;;;;;;6.18;77.32;100630.47;4984758;28;20065;-72
2021/04/21 02:38:35;;;;;;;11.73;5.75;;;;;;;6.11;77.14;100636.84;4988475;28;20107;-72
2021/04/21 02:41:07;;;;;;;16.35;5.90;;;;;;;6.14;77.74;100641.13;4983553;28;20050;-71
2021/04/21 02:44:04;;;;;;;13.70;6.07;;;;;;;5.94;78.12;100632.28;4994006;28;20571;-72
2021/04/21 02:46:44;;;;;;;13.50;5.32;;;;;;;5.91;78.17;100632.41;4990334;28;20051;-71
2021/04/21 02:49:27;;;;;;;12.98;5.72;;;;;;;5.94;77.95;100627.06;4990264;28;20728;-72
2021/04/21 02:52:05;;;;;;;15.70;5.50;;;;;;;5.91;78.09;100634.16;4995574;23;20129;-68
2021/04/21 02:54:37;;;;;;;12.25;6.13;;;;;;;5.86;78.93;100629.13;4972536;28;20062;-68
2021/04/21 02:57:11;;;;;;;17.48;5.50;;;;;;;5.78;78.79;100631.19;4984438;28;20154;-67
2021/04/21 02:59:43;;;;;;;13.07;5.22;;;;;;;5.83;78.54;100639.69;4987474;28;20516;-67
2021/04/21 03:02:14;;;;;;;17.35;5.53;;;;;;;5.84;78.94;100636.16;4985281;28;20650;-69
2021/04/21 03:04:51;;;;;;;14.55;5.97;;;;;;;5.73;78.89;100635.72;4984130;28;20073;-67
2021/04/21 03:07:45;;;;;;;10.57;5.35;;;;;;;5.66;79.77;100636.88;4984919;28;20059;-68
2021/04/21 03:10:17;;;;;;;6.50;4.35;;;;;;;5.69;79.81;100634.16;4983857;28;20394;-68
2021/04/21 03:12:51;;;;;;;11.75;4.72;;;;;;;5.71;79.66;100627.94;4980631;28;20054;-69
2021/04/21 03:15:20;;;;;;;10.27;5.28;;;;;;;5.62;79.93;100632.66;4989016;28;20268;-68
2021/04/21 03:17:51;;;;;;;13.60;5.72;;;;;;;5.55;80.70;100629.44;4970026;28;20436;-68
2021/04/21 03:20:20;;;;;;;14.95;6.00;;;;;;;5.53;81.01;100639.09;5003548;28;20069;-70
2021/04/21 03:22:53;;;;;;;16.05;5.70;;;;;;;5.36;81.12;100629.31;4985716;28;20069;-69
2021/04/21 03:25:33;;;;;;;18.13;5.90;;;;;;;5.47;81.47;100634.97;5009446;28;21052;-69
2021/04/21 03:28:02;;;;;;;13.48;5.65;;;;;;;5.37;81.86;100620.56;4987917;28;20043;-68
2021/04/21 03:30:30;;;;;;;12.60;4.68;;;;;;;5.62;80.46;100619.59;4987132;28;20046;-68
2021/04/21 03:33:03;;;;;;;18.30;5.35;;;;;;;5.67;80.33;100622.88;4967147;28;20057;-68
2021/04/21 03:35:30;;;;;;;15.13;4.95;;;;;;;5.63;80.16;100616.97;4983606;28;20049;-68
2021/04/21 03:38:06;;;;;;;10.93;5.38;;;;;;;5.69;79.99;100621.09;4985142;28;20444;-68
2021/04/21 03:40:34;;;;;;;10.05;5.22;;;;;;;5.63;79.95;100623.91;4976711;28;20113;-69
2021/04/21 03:43:01;;;;;;;12.32;5.85;;;;;;;5.65;80.25;100622.09;4981402;28;20573;-67
2021/04/21 03:45:29;;;;;;;16.25;4.38;;;;;;;5.58;80.62;100619.75;4985644;28;20047;-70
2021/04/21 03:47:56;;;;;;;14.48;5.07;;;;;;;5.57;80.38;100619.78;4986315;28;20341;-69
2021/04/21 03:50:23;;;;;;;11.15;4.55;;;;;;;5.62;79.84;100615.22;4981630;28;20136;-69
2021/04/21 03:53:02;;;;;;;12.23;5.10;;;;;;;5.59;79.97;100620.59;4987419;28;20142;-71
2021/04/21 03:55:30;;;;;;;14.55;5.00;;;;;;;5.53;80.59;100628.63;4983788;28;20133;-70
2021/04/21 03:57:58;;;;;;;15.05;5.90;;;;;;;5.62;80.23;100620.44;4991574;28;20119;-68
2021/04/21 04:00:26;;;;;;;14.48;5.10;;;;;;;5.68;79.84;100617.63;5006401;28;20088;-70
2021/04/21 04:03:02;;;;;;;15.43;5.03;;;;;;;5.78;78.96;100616.34;5002665;28;20070;-72
2021/04/21 04:05:34;;;;;;;13.45;5.72;;;;;;;5.85;78.70;100619.56;4990276;28;20452;-70
2021/04/21 04:08:04;;;;;;;14.38;4.82;;;;;;;5.80;78.59;100624.97;4984886;28;20061;-71
2021/04/21 04:10:34;;;;;;;11.07;5.20;;;;;;;5.92;77.88;100628.06;4987227;28;20701;-70
2021/04/21 04:13:05;;;;;;;12.82;5.72;;;;;;;6.05;77.09;100632.72;4989962;28;20145;-70
2021/04/21 04:15:32;;;;;;;10.32;5.47;;;;;;;6.17;76.91;100633.13;4984100;28;20081;-69
2021/04/21 04:18:00;;;;;;;11.68;5.43;;;;;;;6.22;75.55;100631.22;4988015;28;20054;-71
2021/04/21 04:20:28;;;;;;;17.13;5.68;;;;;;;6.14;75.94;100633.28;4987440;28;20059;-69
2021/04/21 04:22:56;;;;;;;8.95;5.30;;;;;;;6.26;75.48;100627.53;4989970;28;20065;-69
2021/04/21 04:25:24;;;;;;;9.52;5.07;;;;;;;6.29;75.00;100630.88;4986188;28;20133;-71
2021/04/21 04:27:52;;;;;;;10.75;5.30;;;;;;;6.33;74.99;100634.22;4971950;28;20064;-69
2021/04/21 04:30:19;;;;;;;10.38;4.72;;;;;;;6.41;74.36;100626.91;4955695;28;20050;-71
2021/04/21 04:32:48;;;;;;;13.07;5.20;;;;;;;6.52;73.78;100621.22;4990087;28;20105;-69
2021/04/21 04:35:15;;;;;;;15.88;7.20;;;;;;;6.72;73.37;100623.84;4983670;28;20050;-72
2021/04/21 04:37:42;;;;;;;14.90;6.00;;;;;;;6.77;73.90;100629.72;5001561;28;20073;-71
2021/04/21 04:40:13;;;;;;;16.50;4.93;;;;;;;6.99;72.60;100624.41;4990012;28;20070;-71
2021/04/21 04:42:41;;;;;;;16.20;5.00;;;;;;;7.87;69.16;100622.09;4988312;28;20038;-70
2021/04/21 04:45:09;;;;;;;10.90;4.63;;;;;;;8.80;64.59;100631.53;4985375;28;20141;-71
2021/04/21 04:47:48;;;;;;;20.50;5.65;;;;;;;9.52;61.36;100639.09;4985894;28;20133;-70
2021/04/21 04:50:24;;;;;;;16.17;4.43;;;;;;;10.13;59.75;100632.19;4970955;28;20054;-71
2021/04/21 04:52:53;;;;;;;11.07;5.20;;;;;;;10.63;57.15;100628.47;4970153;28;20042;-69
2021/04/21 04:55:21;;;;;;;18.25;5.70;;;;;;;11.01;55.62;100626.16;4982045;28;20101;-71
2021/04/21 04:57:50;;;;;;;20.15;5.18;;;;;;;11.35;53.92;100622.31;4983250;28;20457;-69
2021/04/21 05:00:20;;;;;;;10.52;4.53;;;;;;;11.87;52.62;100620.81;4987683;28;20062;-70
2021/04/21 05:02:58;;;;;;;16.48;5.78;;;;;;;12.10;51.23;100628.09;4988802;28;20076;-71
2021/04/21 05:05:25;;;;;;;13.48;5.63;;;;;;;12.34;50.70;100622.16;4987410;28;20060;-68
2021/04/21 05:08:03;;;;;;;16.60;6.03;;;;;;;12.48;49.53;100618.63;4969347;28;20077;-68
2021/04/21 05:10:34;;;;;;;14.52;5.05;;;;;;;12.96;48.51;100618.84;4962706;28;20153;-69
2021/04/21 05:13:04;;;;;;;11.27;6.25;;;;;;;13.77;46.53;100624.56;4984236;28;20058;-71
2021/04/21 05:15:37;;;;;;;19.83;5.70;;;;;;;14.11;45.09;100625.59;4964872;28;20061;-69
2021/04/21 05:18:22;;;;;;;8.40;5.60;;;;;;;13.99;44.43;100625.66;4985740;28;20149;-70
2021/04/21 05:21:14;;;;;;;16.77;6.18;;;;;;;13.81;45.55;100625.19;5003391;28;20483;-69
2021/04/21 05:24:15;;;;;;;18.48;5.97;;;;;;;13.65;45.82;100625.47;4986592;28;20087;-70
2021/04/21 05:27:14;;;;;;;16.47;6.43;;;;;;;13.99;44.39;100628.31;4986789;28;20050;-70
2021/04/21 05:30:18;;;;;;;18.60;6.45;;;;;;;13.90;44.14;100632.47;4991226;28;20066;-69
2021/04/21 05:33:03;;;;;;;14.80;6.82;;;;;;;13.54;44.86;100626.22;4991758;28;20118;-70
2021/04/21 05:35:36;;;;;;;12.27;6.27;;;;;;;13.87;44.67;100632.72;4988536;28;20052;-67
2021/04/21 05:38:26;;;;;;;12.95;5.75;;;;;;;13.91;43.42;100629.72;4989892;28;20472;-71
2021/04/21 05:41:20;;;;;;;14.10;6.15;;;;;;;14.21;42.59;100630.22;4968241;28;20097;-69
2021/04/21 05:43:59;;;;;;;12.23;5.90;;;;;;;13.68;43.91;100628.72;4980521;28;20081;-69
2021/04/21 05:46:47;;;;;;;13.07;5.85;;;;;;;14.56;42.20;100622.31;4982110;28;20074;-74
2021/04/21 05:49:25;;;;;;;20.50;6.75;;;;;;;14.67;41.56;100625.84;4988854;28;20065;-69
2021/04/21 05:52:42;;;;;;;13.43;6.20;;;;;;;14.71;41.86;100618.50;4985871;28;20100;-72
2021/04/21 05:55:39;;;;;;;21.13;6.87;;;;;;;15.49;40.07;100620.38;4977930;28;20069;-73
2021/04/21 05:58:31;;;;;;;16.27;5.65;;;;;;;15.99;38.05;100622.63;4988626;28;20146;-74
2021/04/21 06:01:13;;;;;;;16.63;6.13;;;;;;;15.98;37.86;100623.56;4986474;28;20064;-67
2021/04/21 06:03:43;;;;;;;18.40;6.88;;;;;;;15.63;39.16;100633.38;4965369;28;20042;-71
2021/04/21 06:06:11;;;;;;;12.13;5.88;;;;;;;16.63;36.51;100627.91;4981016;28;20065;-73
2021/04/21 06:08:38;;;;;;;16.25;6.53;;;;;;;17.25;36.30;100627.03;4983294;28;20059;-69
2021/04/21 06:11:25;;;;;;;16.23;8.48;;;;;;;17.60;35.18;100633.72;4987628;28;20129;-68
2021/04/21 06:14:01;;;;;;;23.27;9.10;;;;;;;19.23;33.68;100620.56;4986870;28;20124;-76
2021/04/21 06:16:28;;;;;;;;;;;;;;;18.43;33.23;100633.31;4970091;28;20051;-72
2021/04/21 06:18:58;;;;;;;13.13;6.20;;;;;;;17.61;34.62;100636.28;4985294;28;19929;-72
2021/04/21 06:21:28;;;;;;;13.20;6.85;;;;;;;18.84;33.31;100635.84;4987567;28;20141;-73
2021/04/21 06:23:56;;;;;;;18.52;7.25;;;;;;;19.05;32.39;100633.84;4970837;28;20389;-73
2021/04/21 06:26:25;;;;;;;13.05;6.68;;;;;;;19.48;31.61;100637.72;4971342;28;20056;-69
2021/04/21 06:29:06;;;;;;;19.85;6.90;;;;;;;20.27;30.63;100630.97;4969769;28;20061;-71
2021/04/21 06:31:38;;;;;;;20.38;6.93;;;;;;;20.74;29.34;100629.69;4982735;28;20604;-74
2021/04/21 06:34:06;;;;;;;15.27;6.55;;;;;;;20.70;29.11;100625.66;4982256;28;20054;-70
2021/04/21 06:36:55;;;;;;;18.50;6.13;;;;;;;20.61;29.24;100631.94;4966691;28;21214;-71
2021/04/21 06:39:23;;;;;;;14.70;6.50;;;;;;;22.11;27.07;100636.88;4983707;28;20058;-68
2021/04/21 06:41:58;;;;;;;12.57;6.50;;;;;;;22.66;26.27;100633.59;4969792;28;20046;-69
2021/04/21 06:44:42;;;;;;;14.90;6.57;;;;;;;21.96;27.30;100636.69;4986170;28;20065;-69
2021/04/21 06:47:10;;;;;;;15.77;6.75;;;;;;;21.76;27.33;100633.47;4949582;28;20077;-72
2021/04/21 06:49:37;;;;;;;14.82;6.93;;;;;;;20.95;28.65;100641.91;4988708;28;20060;-74
2021/04/21 06:52:14;;;;;;;10.85;6.20;;;;;;;21.38;28.24;100638.31;4990281;28;20035;-77
2021/04/21 06:54:41;;;;;;;15.40;6.57;;;;;;;23.33;25.53;100636.88;4986249;28;20053;-72
2021/04/21 06:57:08;;;;;;;14.80;7.97;;;;;;;24.17;24.08;100635.28;4984983;28;20117;-73
2021/04/21 06:59:35;;;;;;;16.23;6.65;;;;;;;22.60;26.61;100651.19;4987977;28;20392;-71
2021/04/21 07:02:02;;;;;;;11.55;7.18;;;;;;;21.24;27.54;100647.75;4983955;28;20043;-74
2021/04/21 07:04:33;;;;;;;12.43;6.65;;;;;;;21.41;27.67;100642.53;4985135;28;20142;-74
2021/04/21 07:07:00;;;;;;;14.40;7.97;;;;;;;22.13;25.79;100642.94;4967984;28;20447;-73
2021/04/21 07:09:27;;;;;;;13.13;7.55;;;;;;;22.37;25.55;100645.66;4994888;28;20082;-69
2021/04/21 07:11:59;;;;;;;12.20;6.97;;;;;;;21.29;26.78;100646.44;5000007;28;20082;-75
2021/04/21 07:14:28;;;;;;;19.15;6.88;;;;;;;21.60;27.04;100642.25;4993821;28;20082;-72
2021/04/21 07:16:56;;;;;;;10.57;6.72;;;;;;;21.08;27.17;100647.66;4982426;28;20092;-73
2021/04/21 07:19:24;;;;;;;12.63;7.43;;;;;;;20.98;27.37;100641.56;4978717;28;20069;-68
2021/04/21 07:21:52;;;;;;;16.17;7.93;;;;;;;23.33;24.52;100638.72;4999243;28;20584;-69
2021/04/21 07:24:27;;;;;;;13.48;7.13;;;;;;;20.19;27.26;100637.91;4995412;28;20101;-70
2021/04/21 07:26:55;;;;;;;12.48;6.75;;;;;;;22.14;24.66;100634.75;4994685;28;20492;-69
2021/04/21 07:29:24;;;;;;;15.20;7.03;;;;;;;22.13;24.52;100638.44;4972588;28;20055;-68
2021/04/21 07:31:52;;;;;;;10.15;6.57;;;;;;;23.18;23.93;100638.56;4967675;28;20490;-69
2021/04/21 07:34:34;;;;;;;11.80;6.78;;;;;;;22.22;24.13;100637.44;4973130;28;20050;-67
2021/04/21 07:37:02;;;;;;;12.23;6.72;;;;;;;23.14;23.63;100635.38;4991298;28;20050;-68
2021/04/21 07:39:37;;;;;;;11.63;6.47;;;;;;;23.95;22.31;100634.22;4991538;28;20118;-68
2021/04/21 07:42:05;;;;;;;17.27;6.70;;;;;;;23.73;23.09;100635.91;4995044;28;20047;-67
2021/04/21 07:44:38;;;;;;;11.35;6.30;;;;;;;23.16;23.47;100637.91;4980584;28;20598;-67
2021/04/21 07:47:07;;;;;;;14.75;6.18;;;;;;;24.16;22.39;100633.59;4996069;28;20069;-67
2021/04/21 07:49:37;;;;;;;14.48;6.47;;;;;;;25.86;20.39;100631.28;4997485;28;20076;-69
2021/04/21 07:52:05;;;;;;;13.70;6.55;;;;;;;26.37;19.37;100637.41;4994598;28;20054;-68
2021/04/21 07:54:33;;;;;;;17.85;6.50;;;;;;;25.82;19.77;100635.38;4995613;28;20055;-68
2021/04/21 07:57:07;;;;;;;8.98;5.97;;;;;;;26.49;19.17;100633.19;4994024;28;20100;-70
2021/04/21 07:59:38;;;;;;;12.73;7.22;;;;;;;26.45;18.93;100637.31;4988712;28;20050;-69
2021/04/21 08:02:12;;;;;;;12.48;5.85;;;;;;;25.92;19.83;100630.50;5012081;28;20763;-68
2021/04/21 08:05:26;;;;;;;15.05;6.38;;;;;;;27.14;18.46;100631.22;4988989;28;20133;-66
2021/04/21 08:08:03;;;;;;;14.55;6.30;;;;;;;27.69;17.95;100625.88;4981486;28;20154;-68
2021/04/21 08:10:34;;;;;;;11.10;5.40;;;;;;;24.72;20.14;100631.53;4985558;28;20080;-71
2021/04/21 08:13:02;;;;;;;10.52;6.38;;;;;;;26.65;19.11;100637.47;4969922;28;20043;-67
2021/04/21 08:15:31;;;;;;;11.15;5.90;;;;;;;26.13;18.60;100640.50;4988344;28;20209;-68
2021/04/21 08:18:16;;;;;;;12.40;5.78;;;;;;;26.34;18.18;100629.69;4974474;28;20155;-69
2021/04/21 08:20:51;;;;;;;7.72;5.60;;;;;;;24.81;19.86;100628.72;4974627;28;20054;-69
2021/04/21 08:23:29;;;;;;;10.10;5.43;;;;;;;25.68;19.30;100632.50;4990355;28;20047;-68
2021/04/21 08:25:56;;;;;;;9.18;4.90;;;;;;;24.97;19.12;100634.78;4989604;28;20112;-70
2021/04/21 08:28:23;;;;;;;12.20;4.95;;;;;;;24.90;19.44;100625.81;4993642;28;20054;-68
2021/04/21 08:31:00;;;;;;;9.90;5.35;;;;;;;24.68;20.26;100626.69;4989179;28;20058;-69
2021/04/21 08:33:29;;;;;;;10.43;5.32;;;;;;;25.68;18.70;100631.66;4991171;28;20145;-69
2021/04/21 08:35:56;;;;;;;13.10;6.65;;;;;;;24.29;20.00;100635.72;4959201;28;20137;-69
2021/04/21 08:42:38;;;;;;;12.30;5.07;;;;;;;19.67;25.89;100645.66;4981714;28;20751;-70
2021/04/21 08:45:07;;;;;;;9.13;5.00;;;;;;;19.44;25.67;100639.84;4991039;28;20050;-69
2021/04/21 08:47:34;;;;;;;12.65;5.28;;;;;;;18.92;26.12;100644.81;4988966;28;20434;-69
2021/04/21 08:50:02;;;;;;;30.95;6.45;;;;;;;18.44;27.32;100653.66;4970412;28;20145;-69
2021/04/21 08:52:47;;;;;;;9.40;4.90;;;;;;;18.38;27.53;100648.91;4994810;23;20053;-79
2021/04/21 08:55:16;;;;;;;12.57;4.57;;;;;;;18.70;27.24;100655.78;4988915;28;20085;-79
2021/04/21 08:57:45;;;;;;;15.02;5.63;;;;;;;17.70;27.74;100651.44;4998338;28;20106;-79
2021/04/21 09:00:19;;;;;;;15.98;7.03;;;;;;;17.70;28.00;100646.09;4987888;28;20058;-79
2021/04/21 09:02:47;;;;;;;13.25;4.93;;;;;;;17.26;28.86;100636.69;5011984;28;20068;-79
2021/04/21 09:05:15;;;;;;;12.27;4.75;;;;;;;17.24;29.41;100651.09;5014182;28;20076;-77
2021/04/21 09:07:43;;;;;;;11.80;5.90;;;;;;;17.34;29.44;100638.69;5006748;28;20120;-80
2021/04/21 09:10:11;;;;;;;9.82;5.82;;;;;;;17.41;29.11;100642.50;5009154;28;20078;-80
2021/04/21 09:12:38;;;;;;;12.73;5.57;;;;;;;16.90;30.49;100640.69;5008901;28;20050;-77
2021/04/21 09:15:06;;;;;;;15.85;7.40;;;;;;;16.79;30.65;100644.25;4996669;28;20117;-81
2021/04/21 09:17:33;;;;;;;19.50;5.95;;;;;;;17.06;30.61;100634.91;4987954;28;20066;-78
2021/04/21 09:20:01;;;;;;;12.27;6.55;;;;;;;16.87;31.46;100630.31;4965777;28;20325;-80
2021/04/21 09:22:27;;;;;;;16.63;6.03;;;;;;;16.98;32.02;100629.41;5001508;28;20077;-78
2021/04/21 09:24:58;;;;;;;13.55;6.05;;;;;;;17.37;31.58;100636.59;4974953;28;20051;-79
2021/04/21 09:27:33;;;;;;;18.67;7.25;;;;;;;17.10;30.51;100631.00;5001808;28;20042;-83
2021/04/21 09:30:11;;;;;;;;;;;;;;;17.23;30.61;100628.97;4981599;28;20050;-81
2021/04/21 09:32:52;;;;;;;19.98;6.28;;;;;;;17.00;30.55;100630.94;4978862;28;20226;-82
2021/04/21 09:35:28;;;;;;;33.05;8.23;;;;;;;16.84;31.58;100633.22;4979068;28;20054;-79
2021/04/21 09:38:01;;;;;;;15.38;7.30;;;;;;;16.78;32.08;100629.28;4985443;28;20129;-79
2021/04/21 09:40:39;;;;;;;17.35;7.45;;;;;;;16.79;32.17;100622.97;5009868;28;20305;-79
2021/04/21 09:43:08;;;;;;;31.33;7.80;;;;;;;17.12;31.83;100616.59;4997325;28;20058;-81
2021/04/21 09:45:40;;;;;;;12.55;6.47;;;;;;;17.64;30.95;100624.50;5006433;28;20062;-80
2021/04/21 09:48:12;;;;;;;13.30;5.97;;;;;;;17.38;30.14;100618.78;5010290;28;20117;-79
2021/04/21 09:50:41;;;;;;;23.40;5.90;;;;;;;17.02;30.92;100628.16;4976093;28;20050;-80
2021/04/21 09:53:25;;;;;;;13.75;5.40;;;;;;;16.92;30.79;100620.13;4962877;28;20064;-79
2021/04/21 09:56:12;;;;;;;11.00;6.05;;;;;;;16.78;31.48;100623.97;4989141;28;20035;-80
2021/04/21 09:58:53;;;;;;;18.70;6.53;;;;;;;17.13;30.32;100609.47;4992473;28;20058;-80
2021/04/21 10:01:23;;;;;;;18.38;5.38;;;;;;;17.34;29.85;100612.94;4995546;28;20035;-80
2021/04/21 10:04:21;;;;;;;17.95;5.75;;;;;;;16.86;30.02;100613.53;4996439;28;20038;-79
2021/04/21 10:06:54;;;;;;;11.60;5.88;;;;;;;16.82;30.54;100617.41;5014249;28;20052;-79
2021/04/21 10:09:28;;;;;;;14.98;5.47;;;;;;;17.18;30.32;100615.22;4992721;28;20364;-79
2021/04/21 10:12:21;;;;;;;9.13;5.47;;;;;;;16.54;31.04;100608.25;5005562;28;20038;-81
2021/04/21 10:14:49;;;;;;;17.20;6.55;;;;;;;16.78;31.09;100613.31;4990960;28;20077;-78
2021/04/21 10:17:17;;;;;;;18.13;6.95;;;;;;;16.88;31.03;100611.56;5009927;28;20049;-79
2021/04/21 10:19:44;;;;;;;11.50;6.22;;;;;;;17.31;31.18;100609.69;5006256;28;20046;-80
2021/04/21 10:22:12;;;;;;;11.75;6.03;;;;;;;16.96;31.46;100605.59;5005426;28;20069;-80
2021/04/21 10:24:39;;;;;;;12.20;5.90;;;;;;;17.30;31.70;100602.69;4982756;28;20188;-80
2021/04/21 10:27:07;;;;;;;12.23;6.13;;;;;;;17.20;31.21;100605.28;4991159;28;20053;-78
2021/04/21 10:29:36;;;;;;;15.13;6.72;;;;;;;17.17;31.31;100603.75;5004305;28;20072;-79
2021/04/21 10:32:04;;;;;;;18.60;6.85;;;;;;;17.27;31.44;100603.78;5003940;28;20045;-79
2021/04/21 10:34:30;;;;;;;12.23;5.65;;;;;;;17.20;31.40;100591.97;4992489;28;20065;-78
2021/04/21 10:36:57;;;;;;;15.63;6.10;;;;;;;17.55;31.45;100598.69;4979692;28;20038;-80
2021/04/21 10:39:36;;;;;;;16.77;5.05;;;;;;;17.68;30.44;100599.28;5007665;28;20038;-78
2021/04/21 10:42:06;;;;;;;14.35;5.55;;;;;;;18.16;30.09;100604.72;5008547;28;20050;-78
2021/04/21 10:44:35;;;;;;;12.43;5.00;;;;;;;17.69;29.39;100591.16;5000580;28;20203;-81
2021/04/21 10:47:07;;;;;;;17.48;5.72;;;;;;;17.62;29.06;100603.34;4980744;28;20058;-81
2021/04/21 10:49:43;;;;;;;9.05;5.20;;;;;;;17.83;28.55;100602.41;4998335;28;20320;-80
2021/04/21 10:52:32;;;;;;;8.68;5.03;;;;;;;18.19;28.53;100593.78;5002460;28;20038;-79
2021/04/21 10:55:08;;;;;;;10.68;4.80;;;;;;;18.60;28.44;100594.44;4980744;28;20551;-81
2021/04/21 10:57:37;;;;;;;8.65;4.22;;;;;;;18.84;27.52;100588.66;4977788;28;20082;-80
2021/04/21 11:00:33;;;;;;;8.25;4.15;;;;;;;17.84;27.36;100589.00;4991101;28;20054;-78
2021/04/21 11:03:07;;;;;;;14.00;4.40;;;;;;;17.31;29.55;100599.88;4997509;28;20125;-80
2021/04/21 11:05:36;;;;;;;6.18;4.28;;;;;;;17.44;30.38;100587.19;4989671;28;20042;-81
2021/04/21 11:08:10;;;;;;;9.73;4.13;;;;;;;17.79;30.45;100588.56;5001179;28;20074;-79
2021/04/21 11:10:53;;;;;;;8.82;4.43;;;;;;;17.53;30.42;100587.34;4993937;28;20061;-82
2021/04/21 11:13:34;;;;;;;9.45;3.97;;;;;;;17.71;30.37;100591.88;5002649;28;20081;-80
2021/04/21 11:16:02;;;;;;;10.38;4.25;;;;;;;17.67;30.58;100579.81;4988447;28;20278;-80
2021/04/21 11:18:36;;;;;;;21.02;4.85;;;;;;;17.46;31.03;100592.34;5000269;28;20061;-80
2021/04/21 11:21:07;;;;;;;8.57;4.05;;;;;;;17.12;31.35;100587.34;5002044;28;20618;-78
2021/04/21 11:23:57;;;;;;;7.80;4.20;;;;;;;16.79;31.29;100596.41;4985057;28;20077;-80
2021/04/21 11:26:30;;;;;;;14.02;4.40;;;;;;;16.48;32.04;100595.50;4993666;28;20066;-81
2021/04/21 11:28:58;;;;;;;18.15;4.25;;;;;;;16.50;32.51;100590.88;4983475;28;20054;-82
2021/04/21 11:31:43;;;;;;;11.10;4.07;;;;;;;16.79;31.70;100590.25;4996831;28;20538;-80
2021/04/21 11:34:19;;;;;;;8.00;3.73;;;;;;;17.06;31.17;100582.53;4995896;28;20485;-79
2021/04/21 11:36:50;;;;;;;;;;;;;;;17.37;30.13;100588.69;4995388;28;20504;-81
2021/04/21 11:39:49;;;;;;;9.30;4.10;;;;;;;17.68;29.68;100578.81;4996333;28;20020;-81
2021/04/21 11:42:41;;;;;;;7.68;3.75;;;;;;;17.72;28.52;100582.06;4977853;28;20522;-81
2021/04/21 11:45:14;;;;;;;5.97;3.47;;;;;;;17.66;28.78;100566.66;4998300;28;20117;-79
2021/04/21 11:48:00;;;;;;;13.27;3.67;;;;;;;17.69;29.29;100569.84;4996221;28;20511;-81
2021/04/21 11:50:34;;;;;;;6.72;3.35;;;;;;;17.67;28.98;100573.66;5005083;28;20070;-79
2021/04/21 11:53:08;;;;;;;9.02;3.20;;;;;;;17.60;29.69;100580.47;4987657;28;20659;-80
2021/04/21 11:55:36;;;;;;;9.80;4.43;;;;;;;17.92;29.41;100577.63;4994804;28;20153;-83
2021/04/21 11:58:07;;;;;;;10.23;3.47;;;;;;;17.89;29.78;100573.44;4993754;28;20345;-81